sensor_id;sensor_type;location;lat;lon;timestamp;pressure;altitude;pressure_sealevel;temperature;humidity
45937;BME280;31649;46.510;6.498;2022-09-03T00:00:54;96977.66;;;17.94;99.39
45937;BME280;31649;46.510;6.498;2022-09-03T00:03:28;96992.13;;;17.98;99.40
45937;BME280;31649;46.510;6.498;2022-09-03T00:06:17;96983.41;;;18.06;99.58
45937;BME280;31649;46.510;6.498;2022-09-03T00:08:53;96986.06;;;17.97;100.00
45937;BME280;31649;46.510;6.498;2022-09-03T00:11:39;96984.09;;;18.00;100.00
45937;BME280;31649;46.510;6.498;2022-09-03T00:14:18;96978.00;;;17.99;99.59
45937;BME280;31649;46.510;6.498;2022-09-03T00:17:00;96977.81;;;17.92;97.12
45937;BME280;31649;46.510;6.498;2022-09-03T00:19:33;96972.91;;;17.89;95.32
45937;BME280;31649;46.510;6.498;2022-09-03T00:22:21;96970.59;;;17.86;96.57
45937;BME280;31649;46.510;6.498;2022-09-03T00:24:49;96983.13;;;17.75;96.39
45937;BME280;31649;46.510;6.498;2022-09-03T00:27:18;96979.84;;;17.57;94.38
45937;BME280;31649;46.510;6.498;2022-09-03T00:29:58;96991.34;;;17.47;95.17
45937;BME280;31649;46.510;6.498;2022-09-03T00:32:36;96967.03;;;17.28;98.63
45937;BME280;31649;46.510;6.498;2022-09-03T00:35:05;96967.16;;;17.27;97.57
45937;BME280;31649;46.510;6.498;2022-09-03T00:37:34;96980.84;;;17.31;99.02
45937;BME280;31649;46.510;6.498;2022-09-03T00:39:59;96991.84;;;17.34;98.83
45937;BME280;31649;46.510;6.498;2022-09-03T00:42:45;97009.84;;;17.12;96.84
45937;BME280;31649;46.510;6.498;2022-09-03T00:45:17;97035.31;;;17.12;98.02
45937;BME280;31649;46.510;6.498;2022-09-03T00:50:45;97073.41;;;16.99;100.00
45937;BME280;31649;46.510;6.498;2022-09-03T00:58:58;97041.53;;;17.02;100.00
45937;BME280;31649;46.510;6.498;2022-09-03T01:01:33;97032.69;;;17.12;100.00
45937;BME280;31649;46.510;6.498;2022-09-03T01:04:14;97032.69;;;17.12;100.00
45937;BME280;31649;46.510;6.498;2022-09-03T01:06:57;97036.81;;;17.14;100.00
45937;BME280;31649;46.510;6.498;2022-09-03T01:09:40;97016.72;;;16.97;99.69
45937;BME280;31649;46.510;6.498;2022-09-03T01:15:27;96992.59;;;17.01;98.60
45937;BME280;31649;46.510;6.498;2022-09-03T01:29:19;97036.13;;;17.12;100.00
45937;BME280;31649;46.510;6.498;2022-09-03T01:37:18;97041.94;;;17.16;100.00
45937;BME280;31649;46.510;6.498;2022-09-03T01:40:17;97063.78;;;17.16;100.00
45937;BME280;31649;46.510;6.498;2022-09-03T01:53:17;97068.28;;;16.98;100.00
45937;BME280;31649;46.510;6.498;2022-09-03T01:56:00;97050.72;;;16.98;100.00
45937;BME280;31649;46.510;6.498;2022-09-03T01:58:38;97062.38;;;17.04;100.00
45937;BME280;31649;46.510;6.498;2022-09-03T02:01:12;97053.69;;;17.03;100.00
45937;BME280;31649;46.510;6.498;2022-09-03T02:03:41;97054.38;;;17.05;100.00
45937;BME280;31649;46.510;6.498;2022-09-03T02:06:10;97044.97;;;17.03;100.00
45937;BME280;31649;46.510;6.498;2022-09-03T02:08:36;97040.19;;;16.98;100.00
45937;BME280;31649;46.510;6.498;2022-09-03T02:11:07;97028.75;;;17.08;100.00
45937;BME280;31649;46.510;6.498;2022-09-03T02:13:41;97033.63;;;17.02;100.00
45937;BME280;31649;46.510;6.498;2022-09-03T02:16:16;97036.81;;;17.14;100.00
45937;BME280;31649;46.510;6.498;2022-09-03T02:18:55;97034.19;;;17.14;100.00
45937;BME280;31649;46.510;6.498;2022-09-03T02:21:23;97032.22;;;17.16;100.00
45937;BME280;31649;46.510;6.498;2022-09-03T02:23:49;97045.66;;;17.05;100.00
45937;BME280;31649;46.510;6.498;2022-09-03T02:26:20;97055.16;;;17.06;100.00
45937;BME280;31649;46.510;6.498;2022-09-03T02:28:47;97062.72;;;17.01;100.00
45937;BME280;31649;46.510;6.498;2022-09-03T02:31:12;97067.78;;;16.94;100.00
45937;BME280;31649;46.510;6.498;2022-09-03T02:33:40;97058.09;;;16.94;100.00
45937;BME280;31649;46.510;6.498;2022-09-03T02:36:10;97047.13;;;16.99;100.00
45937;BME280;31649;46.510;6.498;2022-09-03T02:38:35;97045.44;;;16.90;100.00
45937;BME280;31649;46.510;6.498;2022-09-03T02:41:01;97032.00;;;16.93;99.91
45937;BME280;31649;46.510;6.498;2022-09-03T02:43:36;97037.25;;;16.93;99.62
45937;BME280;31649;46.510;6.498;2022-09-03T02:46:08;97039.22;;;16.99;100.00
45937;BME280;31649;46.510;6.498;2022-09-03T02:48:34;97039.91;;;17.01;100.00
45937;BME280;31649;46.510;6.498;2022-09-03T02:51:00;97040.56;;;17.03;100.00
45937;BME280;31649;46.510;6.498;2022-09-03T02:53:25;97043.69;;;17.07;99.92
45937;BME280;31649;46.510;6.498;2022-09-03T02:55:57;97038.72;;;17.04;100.00
45937;BME280;31649;46.510;6.498;2022-09-03T02:58:23;97044.50;;;16.99;100.00
45937;BME280;31649;46.510;6.498;2022-09-03T03:00:48;97038.91;;;17.02;100.00
45937;BME280;31649;46.510;6.498;2022-09-03T03:03:13;97047.25;;;16.98;100.00
45937;BME280;31649;46.510;6.498;2022-09-03T03:05:45;97043.50;;;17.00;100.00
45937;BME280;31649;46.510;6.498;2022-09-03T03:08:11;97036.44;;;17.01;100.00
45937;BME280;31649;46.510;6.498;2022-09-03T03:10:40;97033.97;;;16.99;100.00
45937;BME280;31649;46.510;6.498;2022-09-03T03:13:05;97032.31;;;16.98;100.00
45937;BME280;31649;46.510;6.498;2022-09-03T03:15:30;97027.09;;;17.06;100.00
45937;BME280;31649;46.510;6.498;2022-09-03T03:17:56;97031.00;;;17.02;100.00
45937;BME280;31649;46.510;6.498;2022-09-03T03:20:22;97031.50;;;17.06;100.00
45937;BME280;31649;46.510;6.498;2022-09-03T03:22:47;97022.97;;;17.04;100.00
45937;BME280;31649;46.510;6.498;2022-09-03T03:25:13;97013.75;;;17.00;99.39
45937;BME280;31649;46.510;6.498;2022-09-03T03:27:38;97017.56;;;17.05;99.51
45937;BME280;31649;46.510;6.498;2022-09-03T03:30:06;97012.94;;;16.91;97.59
45937;BME280;31649;46.510;6.498;2022-09-03T03:32:34;97013.25;;;16.96;97.62
45937;BME280;31649;46.510;6.498;2022-09-03T03:34:59;97019.34;;;16.97;97.51
45937;BME280;31649;46.510;6.498;2022-09-03T03:37:25;97004.88;;;16.92;97.74
45937;BME280;31649;46.510;6.498;2022-09-03T03:39:50;97006.38;;;16.95;96.91
45937;BME280;31649;46.510;6.498;2022-09-03T03:42:15;97008.00;;;16.96;97.89
45937;BME280;31649;46.510;6.498;2022-09-03T03:44:40;97006.19;;;16.88;97.22
45937;BME280;31649;46.510;6.498;2022-09-03T03:47:08;97004.69;;;16.86;97.19
45937;BME280;31649;46.510;6.498;2022-09-03T03:49:33;96990.38;;;16.80;96.73
45937;BME280;31649;46.510;6.498;2022-09-03T03:51:58;96984.13;;;16.81;97.67
45937;BME280;31649;46.510;6.498;2022-09-03T03:54:24;96995.66;;;16.80;97.56
45937;BME280;31649;46.510;6.498;2022-09-03T03:56:49;96995.31;;;16.83;97.83
45937;BME280;31649;46.510;6.498;2022-09-03T03:59:15;96993.34;;;16.85;96.51
45937;BME280;31649;46.510;6.498;2022-09-03T04:01:40;96996.59;;;16.79;96.99
45937;BME280;31649;46.510;6.498;2022-09-03T04:04:05;97011.75;;;16.85;96.93
45937;BME280;31649;46.510;6.498;2022-09-03T04:06:31;97017.81;;;16.86;96.30
45937;BME280;31649;46.510;6.498;2022-09-03T04:08:56;97002.53;;;16.81;95.70
45937;BME280;31649;46.510;6.498;2022-09-03T04:11:23;96984.31;;;16.79;97.96
45937;BME280;31649;46.510;6.498;2022-09-03T04:13:49;97012.22;;;16.72;97.56
45937;BME280;31649;46.510;6.498;2022-09-03T04:16:20;97002.19;;;16.76;98.87
45937;BME280;31649;46.510;6.498;2022-09-03T04:18:46;96993.19;;;16.78;98.77
45937;BME280;31649;46.510;6.498;2022-09-03T04:21:16;96998.44;;;16.78;100.00
45937;BME280;31649;46.510;6.498;2022-09-03T04:23:45;96989.53;;;16.71;100.00
45937;BME280;31649;46.510;6.498;2022-09-03T04:26:13;96983.81;;;16.76;99.15
45937;BME280;31649;46.510;6.498;2022-09-03T04:28:39;96988.72;;;16.79;98.43
45937;BME280;31649;46.510;6.498;2022-09-03T04:31:08;96990.72;;;16.85;99.13
45937;BME280;31649;46.510;6.498;2022-09-03T04:33:34;96992.19;;;16.79;96.50
45937;BME280;31649;46.510;6.498;2022-09-03T04:36:10;97004.19;;;16.82;96.70
45937;BME280;31649;46.510;6.498;2022-09-03T04:38:36;97004.50;;;16.79;97.87
45937;BME280;31649;46.510;6.498;2022-09-03T04:41:03;96996.28;;;16.74;97.87
45937;BME280;31649;46.510;6.498;2022-09-03T04:43:29;96999.41;;;16.77;99.11
45937;BME280;31649;46.510;6.498;2022-09-03T04:45:58;97004.16;;;16.74;98.68
45937;BME280;31649;46.510;6.498;2022-09-03T04:48:25;96998.56;;;16.77;99.99
45937;BME280;31649;46.510;6.498;2022-09-03T04:50:50;96989.06;;;16.76;99.54
45937;BME280;31649;46.510;6.498;2022-09-03T04:53:16;96986.28;;;16.77;99.79
45937;BME280;31649;46.510;6.498;2022-09-03T04:55:41;96969.19;;;16.81;100.00
45937;BME280;31649;46.510;6.498;2022-09-03T04:58:08;96964.59;;;16.83;99.25
45937;BME280;31649;46.510;6.498;2022-09-03T05:00:35;96953.78;;;16.78;98.40
45937;BME280;31649;46.510;6.498;2022-09-03T05:03:00;96948.50;;;16.70;96.02
45937;BME280;31649;46.510;6.498;2022-09-03T05:05:26;96956.38;;;16.70;96.29
45937;BME280;31649;46.510;6.498;2022-09-03T05:07:51;96957.03;;;16.72;96.63
45937;BME280;31649;46.510;6.498;2022-09-03T05:10:17;96953.13;;;16.76;97.47
45937;BME280;31649;46.510;6.498;2022-09-03T05:13:00;96944.88;;;16.71;96.36
45937;BME280;31649;46.510;6.498;2022-09-03T05:15:26;96938.78;;;16.70;95.44
45937;BME280;31649;46.510;6.498;2022-09-03T05:17:55;96950.81;;;16.81;96.10
45937;BME280;31649;46.510;6.498;2022-09-03T05:20:20;96947.34;;;16.81;97.23
45937;BME280;31649;46.510;6.498;2022-09-03T05:22:47;96946.56;;;16.80;98.60
45937;BME280;31649;46.510;6.498;2022-09-03T05:25:12;96945.56;;;16.81;98.36
45937;BME280;31649;46.510;6.498;2022-09-03T05:27:37;96945.06;;;16.86;98.61
45937;BME280;31649;46.510;6.498;2022-09-03T05:30:03;96944.41;;;16.84;98.58
45937;BME280;31649;46.510;6.498;2022-09-03T05:32:30;96941.97;;;16.91;99.21
45937;BME280;31649;46.510;6.498;2022-09-03T05:34:55;96934.25;;;16.98;99.40
45937;BME280;31649;46.510;6.498;2022-09-03T05:37:21;96929.81;;;17.06;99.71
45937;BME280;31649;46.510;6.498;2022-09-03T05:39:47;96925.22;;;17.09;99.22
45937;BME280;31649;46.510;6.498;2022-09-03T05:42:12;96932.00;;;17.20;96.64
45937;BME280;31649;46.510;6.498;2022-09-03T05:44:39;96935.97;;;17.32;96.92
45937;BME280;31649;46.510;6.498;2022-09-03T05:47:04;96939.25;;;17.34;96.64
45937;BME280;31649;46.510;6.498;2022-09-03T05:49:29;96946.66;;;17.39;96.53
45937;BME280;31649;46.510;6.498;2022-09-03T05:51:56;96957.66;;;17.43;95.29
45937;BME280;31649;46.510;6.498;2022-09-03T05:54:22;96953.38;;;17.33;94.46
45937;BME280;31649;46.510;6.498;2022-09-03T05:56:47;96952.03;;;17.29;95.09
45937;BME280;31649;46.510;6.498;2022-09-03T05:59:12;96954.38;;;17.32;97.73
45937;BME280;31649;46.510;6.498;2022-09-03T06:01:40;96944.16;;;17.29;98.54
45937;BME280;31649;46.510;6.498;2022-09-03T06:04:11;96937.94;;;17.30;97.36
45937;BME280;31649;46.510;6.498;2022-09-03T06:06:39;96945.34;;;17.35;98.81
45937;BME280;31649;46.510;6.498;2022-09-03T06:09:10;96947.31;;;17.33;98.44
45937;BME280;31649;46.510;6.498;2022-09-03T06:11:38;96918.88;;;17.28;98.51
45937;BME280;31649;46.510;6.498;2022-09-03T06:14:06;96975.22;;;17.25;99.56
45937;BME280;31649;46.510;6.498;2022-09-03T06:16:35;96999.00;;;17.07;100.00
45937;BME280;31649;46.510;6.498;2022-09-03T06:19:01;97020.31;;;16.96;100.00
45937;BME280;31649;46.510;6.498;2022-09-03T06:21:27;97026.03;;;16.82;100.00
45937;BME280;31649;46.510;6.498;2022-09-03T06:23:54;96978.69;;;16.66;100.00
45937;BME280;31649;46.510;6.498;2022-09-03T06:26:24;96942.41;;;16.69;100.00
45937;BME280;31649;46.510;6.498;2022-09-03T06:28:50;96936.84;;;16.81;100.00
45937;BME280;31649;46.510;6.498;2022-09-03T06:31:18;96948.69;;;16.93;100.00
45937;BME280;31649;46.510;6.498;2022-09-03T06:33:45;96936.56;;;17.01;100.00
45937;BME280;31649;46.510;6.498;2022-09-03T06:36:13;96946.09;;;17.10;100.00
45937;BME280;31649;46.510;6.498;2022-09-03T06:38:40;96953.69;;;17.13;100.00
45937;BME280;31649;46.510;6.498;2022-09-03T06:43:38;96954.66;;;17.21;100.00
45937;BME280;31649;46.510;6.498;2022-09-03T06:46:12;96949.75;;;17.26;100.00
45937;BME280;31649;46.510;6.498;2022-09-03T06:48:38;96949.41;;;17.29;100.00
45937;BME280;31649;46.510;6.498;2022-09-03T06:51:10;96975.22;;;17.25;100.00
45937;BME280;31649;46.510;6.498;2022-09-03T06:53:41;96986.03;;;17.05;100.00
45937;BME280;31649;46.510;6.498;2022-09-03T06:56:19;96988.97;;;17.02;100.00
45937;BME280;31649;46.510;6.498;2022-09-03T06:58:51;96979.28;;;17.11;100.00
45937;BME280;31649;46.510;6.498;2022-09-03T07:01:20;96990.31;;;17.15;100.00
45937;BME280;31649;46.510;6.498;2022-09-03T07:03:47;96987.34;;;17.10;100.00
45937;BME280;31649;46.510;6.498;2022-09-03T07:06:17;96987.81;;;17.05;100.00
45937;BME280;31649;46.510;6.498;2022-09-03T07:08:44;96996.34;;;16.99;100.00
45937;BME280;31649;46.510;6.498;2022-09-03T07:11:15;97014.28;;;17.03;100.00
45937;BME280;31649;46.510;6.498;2022-09-03T07:13:43;97009.16;;;17.02;100.00
45937;BME280;31649;46.510;6.498;2022-09-03T07:16:12;96999.66;;;17.09;100.00
45937;BME280;31649;46.510;6.498;2022-09-03T07:18:39;96987.03;;;17.13;100.00
45937;BME280;31649;46.510;6.498;2022-09-03T07:21:06;96975.56;;;17.22;100.00
45937;BME280;31649;46.510;6.498;2022-09-03T07:23:33;96985.56;;;17.27;100.00
45937;BME280;31649;46.510;6.498;2022-09-03T07:26:00;97003.97;;;17.27;100.00
45937;BME280;31649;46.510;6.498;2022-09-03T07:28:27;97011.88;;;17.35;100.00
45937;BME280;31649;46.510;6.498;2022-09-03T07:30:55;97020.59;;;17.36;100.00
45937;BME280;31649;46.510;6.498;2022-09-03T07:33:24;97018.97;;;17.51;100.00
45937;BME280;31649;46.510;6.498;2022-09-03T07:35:50;97024.22;;;17.43;100.00
45937;BME280;31649;46.510;6.498;2022-09-03T07:38:17;97017.94;;;17.27;100.00
45937;BME280;31649;46.510;6.498;2022-09-03T07:40:44;97033.06;;;17.25;98.71
45937;BME280;31649;46.510;6.498;2022-09-03T07:43:11;97038.03;;;17.28;99.48
45937;BME280;31649;46.510;6.498;2022-09-03T07:45:36;97040.47;;;17.30;100.00
45937;BME280;31649;46.510;6.498;2022-09-03T07:48:03;97030.13;;;17.28;100.00
45937;BME280;31649;46.510;6.498;2022-09-03T07:50:29;97032.25;;;17.33;100.00
45937;BME280;31649;46.510;6.498;2022-09-03T07:52:58;97040.66;;;17.28;100.00
45937;BME280;31649;46.510;6.498;2022-09-03T07:55:24;97047.91;;;17.43;100.00
45937;BME280;31649;46.510;6.498;2022-09-03T07:57:54;97039.50;;;17.64;100.00
45937;BME280;31649;46.510;6.498;2022-09-03T08:00:20;97041.19;;;17.66;99.11
45937;BME280;31649;46.510;6.498;2022-09-03T08:02:45;97039.03;;;17.86;96.42
45937;BME280;31649;46.510;6.498;2022-09-03T08:05:10;97052.53;;;18.00;95.04
45937;BME280;31649;46.510;6.498;2022-09-03T08:07:35;97049.38;;;17.96;93.20
45937;BME280;31649;46.510;6.498;2022-09-03T08:10:01;97061.56;;;17.89;93.81
45937;BME280;31649;46.510;6.498;2022-09-03T08:12:26;97063.06;;;17.91;93.07
45937;BME280;31649;46.510;6.498;2022-09-03T08:14:52;97053.84;;;17.95;91.21
45937;BME280;31649;46.510;6.498;2022-09-03T08:17:17;97059.25;;;18.02;93.97
45937;BME280;31649;46.510;6.498;2022-09-03T08:19:43;97076.03;;;17.93;89.95
45937;BME280;31649;46.510;6.498;2022-09-03T08:22:10;97069.78;;;17.85;91.80
45937;BME280;31649;46.510;6.498;2022-09-03T08:24:35;97067.97;;;17.86;92.15
45937;BME280;31649;46.510;6.498;2022-09-03T08:27:01;97067.81;;;17.79;92.96
45937;BME280;31649;46.510;6.498;2022-09-03T08:29:27;97078.19;;;17.81;93.92
45937;BME280;31649;46.510;6.498;2022-09-03T08:31:52;97093.31;;;17.79;93.31
45937;BME280;31649;46.510;6.498;2022-09-03T08:34:18;97090.53;;;17.80;93.23
45937;BME280;31649;46.510;6.498;2022-09-03T08:36:44;97082.13;;;17.85;94.96
45937;BME280;31649;46.510;6.498;2022-09-03T08:39:11;97088.19;;;17.85;93.94
45937;BME280;31649;46.510;6.498;2022-09-03T08:46:54;97084.13;;;18.00;91.22
45937;BME280;31649;46.510;6.498;2022-09-03T08:49:26;97100.25;;;18.21;91.79
45937;BME280;31649;46.510;6.498;2022-09-03T08:52:00;97095.44;;;18.33;91.51
45937;BME280;31649;46.510;6.498;2022-09-03T08:54:29;97099.25;;;18.39;91.14
45937;BME280;31649;46.510;6.498;2022-09-03T08:56:57;97100.38;;;18.45;88.91
45937;BME280;31649;46.510;6.498;2022-09-03T08:59:24;97099.69;;;18.60;85.89
45937;BME280;31649;46.510;6.498;2022-09-03T09:02:19;97099.16;;;18.81;85.77
45937;BME280;31649;46.510;6.498;2022-09-03T09:04:58;97110.88;;;18.62;87.34
45937;BME280;31649;46.510;6.498;2022-09-03T09:10:36;97110.91;;;18.45;87.15
45937;BME280;31649;46.510;6.498;2022-09-03T09:16:37;97103.19;;;18.43;86.32
45937;BME280;31649;46.510;6.498;2022-09-03T09:21:58;97109.25;;;18.44;89.81
45937;BME280;31649;46.510;6.498;2022-09-03T09:24:28;97096.59;;;18.48;88.47
45937;BME280;31649;46.510;6.498;2022-09-03T09:26:59;97102.53;;;18.41;88.43
45937;BME280;31649;46.510;6.498;2022-09-03T09:29:31;97091.81;;;18.51;87.31
45937;BME280;31649;46.510;6.498;2022-09-03T09:31:59;97098.38;;;18.55;87.85
45937;BME280;31649;46.510;6.498;2022-09-03T09:34:24;97107.94;;;18.48;91.82
45937;BME280;31649;46.510;6.498;2022-09-03T09:36:53;97103.50;;;18.40;93.72
45937;BME280;31649;46.510;6.498;2022-09-03T09:39:19;97103.88;;;18.29;92.22
45937;BME280;31649;46.510;6.498;2022-09-03T09:42:04;97148.66;;;18.20;93.62
45937;BME280;31649;46.510;6.498;2022-09-03T09:44:32;97178.22;;;18.06;97.31
45937;BME280;31649;46.510;6.498;2022-09-03T09:47:23;97116.44;;;17.50;100.00
45937;BME280;31649;46.510;6.498;2022-09-03T09:49:57;97127.25;;;17.30;100.00
45937;BME280;31649;46.510;6.498;2022-09-03T09:52:25;97124.78;;;17.20;92.14
45937;BME280;31649;46.510;6.498;2022-09-03T09:54:53;97121.50;;;17.26;91.38
45937;BME280;31649;46.510;6.498;2022-09-03T09:57:31;97123.00;;;17.46;92.78
45937;BME280;31649;46.510;6.498;2022-09-03T10:00:11;97126.84;;;17.60;94.73
45937;BME280;31649;46.510;6.498;2022-09-03T10:02:39;97134.22;;;17.64;97.14
45937;BME280;31649;46.510;6.498;2022-09-03T10:05:17;97135.91;;;17.66;97.27
45937;BME280;31649;46.510;6.498;2022-09-03T10:10:23;97121.91;;;17.73;97.90
45937;BME280;31649;46.510;6.498;2022-09-03T10:12:57;97127.38;;;17.89;99.20
45937;BME280;31649;46.510;6.498;2022-09-03T10:15:33;97129.84;;;17.98;100.00
45937;BME280;31649;46.510;6.498;2022-09-03T10:18:21;97126.72;;;18.03;99.33
45937;BME280;31649;46.510;6.498;2022-09-03T10:21:14;97124.91;;;18.12;99.57
45937;BME280;31649;46.510;6.498;2022-09-03T10:26:16;97107.63;;;18.35;98.36
45937;BME280;31649;46.510;6.498;2022-09-03T10:28:45;97108.59;;;18.50;95.38
45937;BME280;31649;46.510;6.498;2022-09-03T10:31:35;97107.38;;;18.78;93.67
45937;BME280;31649;46.510;6.498;2022-09-03T10:37:17;97124.41;;;19.47;89.70
45937;BME280;31649;46.510;6.498;2022-09-03T10:45:46;97116.16;;;19.74;86.23
45937;BME280;31649;46.510;6.498;2022-09-03T10:51:26;97114.06;;;20.16;85.38
45937;BME280;31649;46.510;6.498;2022-09-03T10:57:02;97117.53;;;20.32;83.35
45937;BME280;31649;46.510;6.498;2022-09-03T11:02:21;97115.13;;;20.76;80.35
45937;BME280;31649;46.510;6.498;2022-09-03T11:04:57;97115.88;;;20.55;80.18
45937;BME280;31649;46.510;6.498;2022-09-03T11:07:30;97118.41;;;20.93;77.78
45937;BME280;31649;46.510;6.498;2022-09-03T11:10:13;97115.72;;;21.39;76.09
45937;BME280;31649;46.510;6.498;2022-09-03T11:13:03;97110.69;;;21.44;75.26
45937;BME280;31649;46.510;6.498;2022-09-03T11:15:36;97103.72;;;21.58;75.59
45937;BME280;31649;46.510;6.498;2022-09-03T11:20:53;97108.81;;;21.60;72.36
45937;BME280;31649;46.510;6.498;2022-09-03T11:23:20;97112.28;;;21.38;71.87
45937;BME280;31649;46.510;6.498;2022-09-03T11:25:57;97107.53;;;21.55;71.69
45937;BME280;31649;46.510;6.498;2022-09-03T11:28:33;97103.03;;;21.71;70.33
45937;BME280;31649;46.510;6.498;2022-09-03T11:33:27;97099.91;;;21.24;70.59
45937;BME280;31649;46.510;6.498;2022-09-03T11:35:59;97106.59;;;21.04;70.69
45937;BME280;31649;46.510;6.498;2022-09-03T11:38:27;97098.97;;;21.16;70.76
45937;BME280;31649;46.510;6.498;2022-09-03T11:43:37;97090.56;;;22.09;69.28
45937;BME280;31649;46.510;6.498;2022-09-03T11:46:12;97082.06;;;22.49;67.72
45937;BME280;31649;46.510;6.498;2022-09-03T11:48:55;97086.81;;;22.60;65.83
45937;BME280;31649;46.510;6.498;2022-09-03T11:51:34;97086.38;;;22.86;65.86
45937;BME280;31649;46.510;6.498;2022-09-03T11:56:37;97072.72;;;22.53;64.40
45937;BME280;31649;46.510;6.498;2022-09-03T12:01:42;97070.13;;;22.31;65.63
45937;BME280;31649;46.510;6.498;2022-09-03T12:04:12;97073.69;;;22.74;64.16
45937;BME280;31649;46.510;6.498;2022-09-03T12:07:07;97068.31;;;23.10;61.83
45937;BME280;31649;46.510;6.498;2022-09-03T12:12:15;97060.91;;;23.61;60.12
45937;BME280;31649;46.510;6.498;2022-09-03T12:17:27;97050.91;;;23.83;59.36
45937;BME280;31649;46.510;6.498;2022-09-03T12:19:57;97053.97;;;23.94;59.24
45937;BME280;31649;46.510;6.498;2022-09-03T12:22:26;97054.78;;;23.94;60.10
45937;BME280;31649;46.510;6.498;2022-09-03T12:25:07;97049.88;;;23.71;59.45
45937;BME280;31649;46.510;6.498;2022-09-03T12:27:33;97050.28;;;23.88;59.55
45937;BME280;31649;46.510;6.498;2022-09-03T12:30:00;97048.44;;;23.61;59.77
45937;BME280;31649;46.510;6.498;2022-09-03T12:32:31;97051.53;;;23.02;60.81
45937;BME280;31649;46.510;6.498;2022-09-03T12:35:19;97049.97;;;22.72;62.33
45937;BME280;31649;46.510;6.498;2022-09-03T12:37:45;97056.94;;;22.73;63.57
45937;BME280;31649;46.510;6.498;2022-09-03T12:40:28;97047.09;;;23.10;62.72
45937;BME280;31649;46.510;6.498;2022-09-03T12:42:55;97052.31;;;23.52;61.28
45937;BME280;31649;46.510;6.498;2022-09-03T12:45:25;97054.81;;;23.81;60.12
45937;BME280;31649;46.510;6.498;2022-09-03T12:47:51;97056.81;;;23.65;60.51
45937;BME280;31649;46.510;6.498;2022-09-03T12:50:22;97049.56;;;23.25;61.02
45937;BME280;31649;46.510;6.498;2022-09-03T12:52:53;97044.91;;;23.34;61.07
45937;BME280;31649;46.510;6.498;2022-09-03T13:00:34;97058.06;;;23.76;58.99
45937;BME280;31649;46.510;6.498;2022-09-03T13:03:05;97051.13;;;23.68;59.81
45937;BME280;31649;46.510;6.498;2022-09-03T13:06:02;97050.69;;;23.71;59.39
45937;BME280;31649;46.510;6.498;2022-09-03T13:08:33;97050.88;;;24.44;57.37
45937;BME280;31649;46.510;6.498;2022-09-03T13:11:03;97050.03;;;24.64;56.70
45937;BME280;31649;46.510;6.498;2022-09-03T13:13:34;97055.72;;;24.75;56.40
45937;BME280;31649;46.510;6.498;2022-09-03T13:21:49;97050.63;;;25.19;54.02
45937;BME280;31649;46.510;6.498;2022-09-03T13:30:20;97042.03;;;25.82;53.70
45937;BME280;31649;46.510;6.498;2022-09-03T13:36:02;97035.09;;;26.06;51.81
45937;BME280;31649;46.510;6.498;2022-09-03T13:38:47;97021.53;;;26.08;52.36
45937;BME280;31649;46.510;6.498;2022-09-03T13:43:59;97016.75;;;24.41;57.48
45937;BME280;31649;46.510;6.498;2022-09-03T13:49:38;97014.56;;;25.56;53.83
45937;BME280;31649;46.510;6.498;2022-09-03T13:57:48;97022.19;;;25.52;53.63
45937;BME280;31649;46.510;6.498;2022-09-03T14:02:53;97017.03;;;25.83;53.12
45937;BME280;31649;46.510;6.498;2022-09-03T14:13:06;96997.34;;;25.58;53.47
45937;BME280;31649;46.510;6.498;2022-09-03T14:15:42;96997.50;;;24.92;54.51
45937;BME280;31649;46.510;6.498;2022-09-03T14:18:34;96995.91;;;24.18;57.95
45937;BME280;31649;46.510;6.498;2022-09-03T14:21:07;96991.59;;;24.30;57.19
45937;BME280;31649;46.510;6.498;2022-09-03T14:23:42;96988.75;;;24.05;58.60
45937;BME280;31649;46.510;6.498;2022-09-03T14:26:17;96980.41;;;23.94;58.81
45937;BME280;31649;46.510;6.498;2022-09-03T14:28:47;96974.69;;;23.91;58.91
45937;BME280;31649;46.510;6.498;2022-09-03T14:31:44;96981.97;;;24.36;57.90
45937;BME280;31649;46.510;6.498;2022-09-03T14:34:37;96976.78;;;25.08;56.01
45937;BME280;31649;46.510;6.498;2022-09-03T14:48:09;96959.97;;;26.85;51.52
45937;BME280;31649;46.510;6.498;2022-09-03T14:50:55;96968.81;;;27.16;51.30
45937;BME280;31649;46.510;6.498;2022-09-03T14:53:30;96972.22;;;27.05;50.68
45937;BME280;31649;46.510;6.498;2022-09-03T14:58:52;96971.00;;;25.94;54.46
45937;BME280;31649;46.510;6.498;2022-09-03T15:01:32;96979.91;;;24.98;56.20
45937;BME280;31649;46.510;6.498;2022-09-03T15:07:20;96985.06;;;24.12;59.64
45937;BME280;31649;46.510;6.498;2022-09-03T15:12:43;96983.66;;;23.28;62.86
45937;BME280;31649;46.510;6.498;2022-09-03T15:15:19;96983.19;;;23.11;63.00
45937;BME280;31649;46.510;6.498;2022-09-03T15:29:19;96979.72;;;26.27;53.57
45937;BME280;31649;46.510;6.498;2022-09-03T15:32:07;96990.53;;;26.33;52.83
45937;BME280;31649;46.510;6.498;2022-09-03T15:37:42;96984.81;;;25.59;54.91
45937;BME280;31649;46.510;6.498;2022-09-03T15:40:27;96967.97;;;25.91;54.39
45937;BME280;31649;46.510;6.498;2022-09-03T15:43:27;96971.63;;;26.15;53.19
45937;BME280;31649;46.510;6.498;2022-09-03T15:45:56;96968.91;;;26.41;53.26
45937;BME280;31649;46.510;6.498;2022-09-03T15:48:35;96973.59;;;26.46;51.85
45937;BME280;31649;46.510;6.498;2022-09-03T15:51:07;96973.22;;;26.42;51.51
45937;BME280;31649;46.510;6.498;2022-09-03T15:53:52;96976.25;;;26.64;52.53
45937;BME280;31649;46.510;6.498;2022-09-03T15:56:27;96976.66;;;26.80;52.01
45937;BME280;31649;46.510;6.498;2022-09-03T16:01:47;96978.56;;;26.61;51.46
45937;BME280;31649;46.510;6.498;2022-09-03T16:17:38;96981.84;;;24.70;57.25
45937;BME280;31649;46.510;6.498;2022-09-03T16:20:19;96978.59;;;25.14;56.87
45937;BME280;31649;46.510;6.498;2022-09-03T16:23:16;96983.25;;;25.51;56.02
45937;BME280;31649;46.510;6.498;2022-09-03T16:25:56;96980.84;;;25.75;54.22
45937;BME280;31649;46.510;6.498;2022-09-03T16:28:44;96981.34;;;25.84;54.77